Latest Weather Observations for Mildura

IDV60801

Issued at 9:32 pm EST Thursday 22 August 2019 (issued every 10 minutes, with the page automatically refreshed every 10 minutes)

About weather observations | Map of weather stations | Latest weather observations for VIC | Other Formats
Station Details ID: 076031 Name: MILDURA AIRPORT Lat: -34.24 Lon: 142.09 Height: 50.0 m
Data from the previous 72 hours. | See also: Recent months at Mildura
Date/Time
EST
Temp
°C
App
Temp
°C
Dew
Point
°C
Rel
Hum
%
Delta-T
°C
Wind Press
QNH
hPa
Press
MSL
hPa
Rain since
9am
mm
Dir  Spd
km/h
Gust
km/h
Spd
kts
Gust
kts
22/09:30pm 11.3 8.3 6.0 70 2.5 SW 11 17 6 9 1027.5 1027.6 0.0
22/09:00pm 11.7 8.3 5.8 67 2.7 SW 13 17 7 9 1027.3 1027.4 0.0
22/08:30pm 12.3 9.6 5.5 63 3.2 SW 9 13 5 7 1027.2 1027.3 0.0
22/08:00pm 13.2 10.5 5.6 60 3.6 WSW 9 15 5 8 1027.1 1027.2 0.0
22/07:30pm 13.6 10.8 5.3 57 3.9 SW 9 11 5 6 1026.9 1027.0 0.0
22/07:00pm 13.8 11.2 4.4 53 4.3 WSW 7 13 4 7 1026.7 1026.8 0.0
22/06:30pm 14.6 11.7 4.6 51 4.7 SW 9 13 5 7 1026.4 1026.5 0.0
22/06:00pm 15.7 12.1 5.0 49 5.0 SW 13 20 7 11 1026.3 1026.4 0.0
22/05:30pm 16.3 12.2 4.4 45 5.6 SSW 15 22 8 12 1026.0 1026.0 0.0
22/05:00pm 16.9 12.5 4.9 45 5.7 SSW 17 24 9 13 1025.9 1025.9 0.0
22/04:30pm 17.3 12.5 4.9 44 5.9 SW 19 26 10 14 1025.9 1025.9 0.0
22/04:00pm 18.0 13.3 5.2 43 6.2 SW 19 30 10 16 1025.8 1025.8 0.0
22/03:30pm 17.5 12.9 5.4 45 5.9 SSW 19 26 10 14 1025.7 1025.7 0.0
22/03:00pm 17.6 13.1 5.9 46 5.7 SW 19 28 10 15 1025.8 1025.8 0.0
22/02:30pm 17.0 12.5 5.9 48 5.4 SW 19 28 10 15 1025.8 1025.8 0.0
22/02:00pm 17.1 12.3 5.7 47 5.5 SSW 20 32 11 17 1025.9 1025.9 0.0
22/01:30pm 17.3 13.3 6.5 49 5.3 SW 17 28 9 15 1026.1 1026.1 0.0
22/01:00pm 17.2 12.7 6.1 48 5.4 SSW 19 28 10 15 1026.5 1026.6 0.0
22/12:30pm 15.8 11.8 6.5 54 4.5 SSW 17 28 9 15 1027.0 1027.1 0.0
22/12:00pm 15.5 10.9 6.5 55 4.4 SSW 20 32 11 17 1027.4 1027.5 0.0
22/11:30am 15.2 10.9 7.0 58 4.0 SW 19 28 10 15 1027.5 1027.6 0.0
22/11:00am 14.7 10.2 7.0 60 3.7 SW 20 32 11 17 1027.6 1027.7 0.0
22/10:30am 14.6 9.7 6.7 59 3.8 SW 22 37 12 20 1027.6 1027.7 0.0
22/10:00am 14.0 9.0 6.6 61 3.6 SW 22 33 12 18 1027.5 1027.6 0.0
22/09:30am 13.6 9.8 7.4 66 3.0 SW 17 28 9 15 1027.5 1027.6 0.0
22/09:00am 12.6 8.9 8.1 74 2.2 SW 17 28 9 15 1027.2 1027.3 0.0
22/08:30am 11.5 7.5 8.4 81 1.5 SW 19 30 10 16 1027.2 1027.3 0.0
22/08:00am 10.5 7.2 8.1 85 1.2 SW 15 24 8 13 1027.0 1027.1 0.0
22/07:30am 10.0 7.0 7.6 85 1.2 WSW 13 22 7 12 1026.7 1026.8 0.0
22/07:00am 10.5 7.1 7.7 83 1.3 SW 15 24 8 13 1026.2 1026.3 0.0
22/06:30am 11.1 7.3 7.6 79 1.7 SW 17 24 9 13 1025.7 1025.7 0.0
22/06:00am 11.7 8.3 7.6 76 2.0 SW 15 22 8 12 1025.7 1025.7 0.0
22/05:30am 11.6 8.1 7.3 75 2.1 SW 15 30 8 16 1025.5 1025.5 0.0
22/05:00am 11.5 7.5 6.8 73 2.2 SW 17 28 9 15 1025.6 1025.6 0.0
22/04:30am 12.1 7.9 7.4 73 2.3 SW 19 32 10 17 1025.4 1025.4 0.0
22/04:00am 11.7 8.2 7.2 74 2.2 WSW 15 28 8 15 1025.6 1025.6 0.0
22/03:30am 11.8 8.0 7.7 76 2.0 SW 17 24 9 13 1025.8 1025.8 0.0
22/03:00am 10.3 6.6 7.9 85 1.2 WSW 17 24 9 13 1025.9 1025.9 0.0
22/02:30am 9.1 5.6 7.4 89 0.8 WSW 15 22 8 12 1025.9 1025.9 0.0
22/02:00am 9.4 6.3 7.3 87 1.0 W 13 19 7 10 1026.0 1026.0 0.0
22/01:30am 10.6 7.2 7.8 83 1.4 WSW 15 20 8 11 1026.0 1026.0 0.0
22/01:00am 11.0 8.0 7.9 81 1.5 WSW 13 20 7 11 1026.1 1026.1 0.0
22/12:30am 11.6 7.9 7.9 78 1.8 WSW 17 28 9 15 1026.4 1026.5 0.0
22/12:00am 12.2 8.7 8.7 79 1.7 WSW 17 28 9 15 1026.5 1026.6 0.0
 
Date/Time
EST
Temp
°C
App
Temp
°C
Dew
Point
°C
Rel
Hum
%
Delta-T
°C
Wind Press
QNH
hPa
Press
MSL
hPa
Rain since
9am
mm
Dir  Spd
km/h
Gust
km/h
Spd
kts
Gust
kts
21/11:30pm 12.5 9.0 8.6 77 1.9 SW 17 28 9 15 1026.5 1026.6 0.0
21/11:00pm 12.8 8.8 8.9 77 1.9 SW 20 33 11 18 1026.2 1026.3 0.0
21/10:30pm 12.9 9.7 9.9 82 1.5 SW 17 30 9 16 1026.3 1026.4 0.0
21/10:00pm 12.2 9.2 9.4 83 1.4 WSW 15 20 8 11 1026.2 1026.3 0.0
21/09:30pm 12.4 9.8 9.2 81 1.6 WSW 13 19 7 10 1026.1 1026.1 0.0
21/09:00pm 12.6 10.3 9.1 79 1.8 WSW 11 17 6 9 1025.9 1025.9 0.0
21/08:30pm 13.3 10.7 9.2 76 2.1 WSW 13 22 7 12 1025.9 1025.9 0.0
21/08:00pm 13.9 10.4 8.9 72 2.5 SW 17 28 9 15 1025.9 1025.9 0.0
21/07:30pm 14.7 11.0 8.0 64 3.4 SW 17 26 9 14 1025.8 1025.8 0.0
21/07:00pm 15.2 11.1 7.7 61 3.7 WSW 19 28 10 15 1025.4 1025.4 0.0
21/06:30pm 16.0 11.8 8.2 60 4.0 SW 20 35 11 19 1025.1 1025.1 0.0
21/06:00pm 17.0 12.7 7.9 55 4.6 SW 20 32 11 17 1024.8 1024.8 0.0
21/05:30pm 17.8 13.4 7.5 51 5.2 SW 20 37 11 20 1024.5 1024.5 0.0
21/05:00pm 18.4 12.8 7.2 48 5.6 SW 26 37 14 20 1024.3 1024.3 0.0
21/04:30pm 18.2 13.0 7.3 49 5.5 WSW 24 37 13 20 1024.2 1024.2 0.0
21/04:00pm 18.5 14.1 7.6 49 5.5 WSW 20 35 11 19 1024.3 1024.3 0.0
21/03:30pm 18.8 14.6 7.6 48 5.7 WSW 19 35 10 19 1024.5 - 0.0
21/03:00pm 18.7 13.6 7.5 48 5.7 WSW 24 35 13 19 1024.4 1024.4 0.0
21/02:30pm 18.3 13.5 7.4 49 5.5 WSW 22 37 12 20 1024.6 1024.6 0.0
21/02:00pm 18.7 13.6 7.5 48 5.7 WSW 24 37 13 20 1024.8 1024.8 0.0
21/01:30pm 18.0 13.6 7.4 50 5.4 SW 20 32 11 17 1025.3 1025.3 0.0
21/01:00pm 17.5 13.3 8.1 54 4.8 WSW 20 32 11 17 1025.8 1025.8 0.0
21/12:30pm 16.8 12.6 8.2 57 4.4 WSW 20 33 11 18 1026.2 1026.3 0.0
21/12:00pm 16.6 12.5 8.6 59 4.1 W 20 32 11 17 1026.8 1026.9 0.0
21/11:30am 15.9 11.7 8.4 61 3.8 WSW 20 35 11 19 1027.3 1027.4 0.0
21/11:00am 15.1 10.9 8.3 64 3.4 WSW 20 35 11 19 1027.5 1027.6 0.0
21/10:30am 15.0 10.4 8.3 64 3.4 WSW 22 35 12 19 1027.4 1027.5 0.0
21/10:00am 13.9 9.7 8.1 68 2.9 W 20 37 11 20 1027.6 1027.7 0.0
21/09:30am 13.9 9.7 8.3 69 2.8 W 20 32 11 17 1027.5 1027.6 0.0
21/09:00am 13.1 8.8 8.0 71 2.5 W 20 32 11 17 1027.4 1027.5 0.0
21/08:30am 13.3 9.1 8.2 71 2.5 WSW 20 35 11 19 1027.3 1027.4 0.0
21/08:00am 12.4 8.3 7.7 73 2.3 WSW 19 33 10 18 1027.2 1027.3 0.0
21/07:30am 12.0 8.6 7.5 74 2.2 WSW 15 24 8 13 1026.9 1027.0 0.0
21/07:00am 12.0 7.8 7.5 74 2.2 WSW 19 28 10 15 1026.7 1026.8 0.0
21/06:30am 12.0 8.2 7.5 74 2.2 WSW 17 28 9 15 1026.6 1026.7 0.0
21/06:00am 12.1 7.9 7.6 74 2.2 WSW 19 33 10 18 1026.5 1026.6 0.0
21/05:30am 11.7 7.9 7.4 75 2.1 WSW 17 30 9 16 1026.6 1026.7 0.0
21/05:00am 10.6 7.5 7.1 79 1.7 WSW 13 20 7 11 1026.5 1026.6 0.0
21/04:30am 10.3 7.1 7.0 80 1.6 W 13 24 7 13 1026.5 1026.6 0.0
21/04:00am 10.2 7.1 7.1 81 1.5 W 13 22 7 12 1026.9 1027.0 0.0
21/03:30am 9.9 6.7 7.0 82 1.4 W 13 19 7 10 1027.2 1027.3 0.0
21/03:00am 10.5 7.0 7.0 79 1.7 W 15 22 8 12 1026.9 1027.0 0.0
21/02:30am 11.4 7.9 7.1 75 2.1 W 15 22 8 12 1027.2 1027.3 0.0
21/02:00am 11.3 8.5 7.0 75 2.0 W 11 19 6 10 1027.7 1027.8 0.0
21/01:30am 11.2 8.0 6.7 74 2.1 W 13 20 7 11 1028.0 1028.1 0.0
21/01:00am 11.1 7.4 6.5 73 2.2 WSW 15 22 8 12 1028.0 1028.1 0.0
21/12:30am 11.7 8.0 6.2 69 2.6 W 15 22 8 12 1028.1 1028.2 0.0
21/12:00am 12.2 8.9 6.3 67 2.8 WSW 13 20 7 11 1028.2 1028.3 0.0
 
Date/Time
EST
Temp
°C
App
Temp
°C
Dew
Point
°C
Rel
Hum
%
Delta-T
°C
Wind Press
QNH
hPa
Press
MSL
hPa
Rain since
9am
mm
Dir  Spd
km/h
Gust
km/h
Spd
kts
Gust
kts
20/11:30pm 13.2 9.5 6.3 63 3.3 WSW 15 26 8 14 1028.3 1028.4 0.0
20/11:00pm 13.8 9.2 6.7 62 3.4 W 20 35 11 19 1028.3 1028.4 0.0
20/10:30pm 13.9 9.5 6.5 61 3.6 W 19 26 10 14 1028.4 1028.5 0.0
20/10:00pm 14.0 9.9 6.4 60 3.6 WSW 17 26 9 14 1028.6 1028.7 0.0
20/09:30pm 14.2 9.7 6.3 59 3.8 WSW 19 28 10 15 1028.5 1028.6 0.0
20/09:00pm 14.2 9.7 6.1 58 3.9 WSW 19 28 10 15 1028.4 1028.5 0.0
20/08:30pm 14.4 10.7 6.3 58 3.9 WSW 15 24 8 13 1028.4 1028.5 0.0
20/08:00pm 14.9 10.8 6.2 56 4.2 WSW 17 28 9 15 1028.1 1028.2 0.0
20/07:30pm 15.3 11.2 6.1 54 4.4 WSW 17 24 9 13 1028.0 1028.1 0.0
20/07:00pm 15.5 12.1 5.7 52 4.7 WSW 13 17 7 9 1028.0 1028.1 0.0
20/06:30pm 15.6 12.0 5.2 50 4.9 WSW 13 20 7 11 1028.0 1028.1 0.0
20/06:00pm 15.7 11.7 5.0 49 5.0 W 15 24 8 13 1028.1 1028.2 0.0
20/05:30pm 15.9 11.0 4.9 48 5.2 W 20 33 11 18 1028.1 1028.2 0.0
20/05:00pm 16.1 11.3 4.8 47 5.3 W 19 32 10 17 1028.2 1028.3 0.0
20/04:30pm 16.6 11.9 5.3 47 5.4 WSW 19 30 10 16 1028.3 1028.4 0.0
20/04:00pm 16.0 10.7 5.0 48 5.2 W 22 39 12 21 1028.5 1028.6 0.0
20/03:30pm 16.0 10.3 5.0 48 5.2 W 24 41 13 22 1028.6 1028.7 0.0
20/03:00pm 16.3 10.6 4.7 46 5.4 W 24 37 13 20 1028.6 1028.7 0.0
20/02:30pm 16.1 10.9 5.4 49 5.1 W 22 39 12 21 1029.0 1029.1 0.0
20/02:00pm 15.9 10.2 4.9 48 5.2 W 24 37 13 20 1029.2 1029.3 0.0
20/01:30pm 15.8 10.2 5.4 50 5.0 W 24 41 13 22 1029.6 1029.7 0.0
20/01:00pm 15.5 9.9 5.4 51 4.8 W 24 39 13 21 1030.0 1030.1 0.0
20/12:30pm 15.2 9.6 5.4 52 4.7 W 24 37 13 20 1030.4 1030.5 0.0
20/12:00pm 14.6 9.5 5.9 56 4.1 WSW 22 35 12 19 1031.0 1031.1 0.0
20/11:30am 14.1 8.9 5.5 56 4.1 WSW 22 35 12 19 1031.2 1031.3 0.0
20/11:00am 13.5 9.0 6.1 61 3.5 W 19 32 10 17 1031.4 1031.5 0.0
20/10:30am 12.4 7.9 6.2 66 2.9 W 19 30 10 16 1031.6 1031.7 0.0
20/10:00am 11.3 6.8 6.2 71 2.4 WNW 19 26 10 14 1031.8 1031.9 0.0
20/09:30am 10.1 6.0 6.1 76 1.9 WNW 17 24 9 13 1031.7 1031.8 0.0
20/09:00am 8.7 4.5 5.8 82 1.3 WNW 17 22 9 12 1031.4 1031.5 0.0
20/08:30am 7.2 4.0 5.3 88 0.8 NW 11 17 6 9 1031.1 1031.2 0.0
20/08:00am 5.7 2.4 4.5 92 0.5 WNW 11 17 6 9 1031.1 1031.2 0.0
20/07:30am 4.5 1.1 3.9 96 0.3 WNW 11 15 6 8 1030.7 1030.8 0.0
20/07:00am 4.1 0.6 3.5 96 0.2 WNW 11 15 6 8 1030.4 1030.5 0.0
20/06:30am 3.2 -0.1 2.6 96 0.2 WNW 9 15 5 8 1030.4 1030.5 0.0
20/06:00am 3.5 0.3 2.9 96 0.2 WNW 9 15 5 8 1030.3 1030.4 0.0
20/05:30am 3.1 -0.6 2.2 94 0.4 WNW 11 13 6 7 1030.1 1030.2 0.0
20/05:00am 3.3 -0.4 2.3 93 0.4 WNW 11 13 6 7 1030.0 1030.1 0.0
20/04:30am 3.4 0.1 2.2 92 0.5 WNW 9 13 5 7 1029.9 1030.0 0.0
20/04:00am 3.4 -0.3 2.2 92 0.5 WNW 11 15 6 8 1030.0 1030.1 0.0
20/03:30am 3.8 0.1 2.5 91 0.5 WNW 11 13 6 7 1030.3 1030.4 0.0
20/03:00am 3.9 0.2 2.4 90 0.6 WNW 11 15 6 8 1030.8 1030.9 0.0
20/02:30am 3.6 0.2 2.1 90 0.6 WNW 9 13 5 7 1031.1 1031.2 0.0
20/02:00am 3.6 0.6 2.0 89 0.6 WNW 7 11 4 6 1031.3 1031.4 0.0
20/01:30am 3.9 0.5 1.8 86 0.8 W 9 11 5 6 1031.2 1031.3 0.0
20/01:00am 4.5 1.1 1.9 83 1.0 W 9 13 5 7 1031.1 1031.2 0.0
20/12:30am 4.6 1.2 1.6 81 1.2 W 9 13 5 7 1031.1 1031.2 0.0
20/12:00am 5.1 1.7 1.6 78 1.4 W 9 13 5 7 1031.2 1031.3 0.0
 
Date/Time
EST
Temp
°C
App
Temp
°C
Dew
Point
°C
Rel
Hum
%
Delta-T
°C
Wind Press
QNH
hPa
Press
MSL
hPa
Rain since
9am
mm
Dir  Spd
km/h
Gust
km/h
Spd
kts
Gust
kts
19/11:30pm 5.3 1.4 1.4 76 1.5 W 11 13 6 7 1031.0 1031.1 0.0
19/11:00pm 5.9 2.4 1.4 73 1.8 W 9 13 5 7 1030.8 1030.9 0.0
19/10:30pm 6.3 2.8 1.4 71 2.0 W 9 13 5 7 1030.6 1030.7 0.0
19/10:00pm 7.8 4.0 1.9 66 2.4 WSW 11 17 6 9 1030.4 1030.5 0.0

Other formats

Comma delimited format used in spreadsheet applications
http://www.bom.gov.au/fwo/IDV60801/IDV60801.94693.axf

JavaScript Object Notation format (JSON) in row-major order
http://www.bom.gov.au/fwo/IDV60801/IDV60801.94693.json

Data quality

Most of these data are generated automatically and are frequently updated. Quality checks on data are not normally performed. It is possible for incorrect values to appear. Refer to information at About Latest Weather Observations and please check the disclaimer before using these data.